createdAt,value
2022-09-22T00:01:36.218Z,11.82
2022-09-22T00:04:07.327Z,11.77
2022-09-22T00:06:39.005Z,11.72
2022-09-22T00:09:11.331Z,11.66
2022-09-22T00:11:42.545Z,11.63
2022-09-22T00:14:13.088Z,11.56
2022-09-22T00:16:43.356Z,11.52
2022-09-22T00:19:14.703Z,11.52
2022-09-22T00:21:43.146Z,11.55
2022-09-22T00:24:13.402Z,11.51
2022-09-22T00:26:41.572Z,11.49
2022-09-22T00:29:10.846Z,11.47
2022-09-22T00:31:41.110Z,11.54
2022-09-22T00:34:10.546Z,11.62
2022-09-22T00:36:38.706Z,11.54
2022-09-22T00:39:08.669Z,11.61
2022-09-22T00:41:42.144Z,11.47
2022-09-22T00:44:39.947Z,11.42
2022-09-22T00:47:17.070Z,11.38
2022-09-22T00:49:50.820Z,11.36
2022-09-22T00:52:24.274Z,11.37
2022-09-22T00:54:55.971Z,11.32
2022-09-22T00:57:29.402Z,11.29
2022-09-22T00:59:57.949Z,11.30
2022-09-22T01:02:26.275Z,11.25
2022-09-22T01:04:54.459Z,11.26
2022-09-22T01:07:26.276Z,11.23
2022-09-22T01:09:55.767Z,11.25
2022-09-22T01:12:27.075Z,11.24
2022-09-22T01:15:06.926Z,11.26
2022-09-22T01:17:55.376Z,11.29
2022-09-22T01:20:52.876Z,11.33
2022-09-22T01:24:09.699Z,11.36
2022-09-22T01:27:16.521Z,11.40
2022-09-22T01:30:24.910Z,11.38
2022-09-22T01:33:12.972Z,11.45
2022-09-22T01:35:50.772Z,11.49
2022-09-22T01:38:30.425Z,11.52
2022-09-22T01:41:05.401Z,11.58
2022-09-22T01:43:42.433Z,11.54
2022-09-22T01:46:16.322Z,11.52
2022-09-22T01:48:49.181Z,11.50
2022-09-22T01:51:22.534Z,11.47
2022-09-22T01:53:56.044Z,11.45
2022-09-22T01:56:27.427Z,11.41
2022-09-22T01:59:00.878Z,11.50
2022-09-22T02:01:38.044Z,11.46
2022-09-22T02:04:11.463Z,11.41
2022-09-22T02:06:43.884Z,11.37
2022-09-22T02:09:15.522Z,11.31
2022-09-22T02:11:44.030Z,11.33
2022-09-22T02:14:12.347Z,11.29
2022-09-22T02:16:42.449Z,11.21
2022-09-22T02:19:14.932Z,11.25
2022-09-22T02:21:46.996Z,11.22
2022-09-22T02:24:28.883Z,11.20
2022-09-22T02:26:58.862Z,11.22
2022-09-22T02:29:30.815Z,11.20
2022-09-22T02:32:03.951Z,11.15
2022-09-22T02:34:32.718Z,11.13
2022-09-22T02:37:07.521Z,11.11
2022-09-22T02:39:41.277Z,11.13
2022-09-22T02:42:24.959Z,11.18
2022-09-22T02:45:00.637Z,11.20
2022-09-22T02:47:35.392Z,11.10
2022-09-22T02:50:07.108Z,11.10
2022-09-22T02:52:35.262Z,11.10
2022-09-22T02:55:03.541Z,11.14
2022-09-22T02:57:31.825Z,11.12
2022-09-22T02:59:59.908Z,11.13
2022-09-22T03:02:29.464Z,11.10
2022-09-22T03:04:57.986Z,11.14
2022-09-22T03:07:26.141Z,11.10
2022-09-22T03:09:54.339Z,11.15
2022-09-22T03:12:22.670Z,11.19
2022-09-22T03:14:51.041Z,11.12
2022-09-22T03:17:19.249Z,11.07
2022-09-22T03:19:48.953Z,11.06
2022-09-22T03:22:17.033Z,11.14
2022-09-22T03:24:45.139Z,11.15
2022-09-22T03:27:13.378Z,11.11
2022-09-22T03:29:41.444Z,11.07
2022-09-22T03:32:09.937Z,11.05
2022-09-22T03:34:40.103Z,11.00
2022-09-22T03:37:11.201Z,10.95
2022-09-22T03:39:39.874Z,10.89
2022-09-22T03:42:08.843Z,10.87
2022-09-22T03:44:37.353Z,10.84
2022-09-22T03:47:05.918Z,10.80
2022-09-22T03:49:34.587Z,10.83
2022-09-22T03:52:03.455Z,10.75
2022-09-22T03:54:33.080Z,10.74
2022-09-22T03:57:01.105Z,10.82
2022-09-22T03:59:29.310Z,10.78
2022-09-22T04:01:58.478Z,10.77
2022-09-22T04:04:26.797Z,10.88
2022-09-22T04:06:55.077Z,10.84
2022-09-22T04:09:23.387Z,10.78
2022-09-22T04:11:52.861Z,10.80
2022-09-22T04:14:20.990Z,10.76
2022-09-22T04:16:49.377Z,10.64
2022-09-22T04:19:17.476Z,10.73
2022-09-22T04:21:45.644Z,10.72
2022-09-22T04:24:14.156Z,10.62
2022-09-22T04:26:56.651Z,10.69
2022-09-22T04:29:32.179Z,10.62
2022-09-22T04:32:00.257Z,10.56
2022-09-22T04:34:29.101Z,10.54
2022-09-22T04:36:57.591Z,10.55
2022-09-22T04:39:28.585Z,10.64
2022-09-22T04:41:56.987Z,10.58
2022-09-22T04:44:25.286Z,10.51
2022-09-22T04:46:56.142Z,10.54
2022-09-22T04:49:24.713Z,10.54
2022-09-22T04:51:53.204Z,10.66
2022-09-22T04:54:21.304Z,10.56
2022-09-22T04:56:49.426Z,10.47
2022-09-22T04:59:17.707Z,10.58
2022-09-22T05:01:45.938Z,10.55
2022-09-22T05:04:15.570Z,10.52
2022-09-22T05:06:44.031Z,10.48
2022-09-22T05:09:12.137Z,10.64
2022-09-22T05:11:44.418Z,10.64
2022-09-22T05:14:13.299Z,10.58
2022-09-22T05:16:42.256Z,10.53
2022-09-22T05:19:10.969Z,10.65
2022-09-22T05:21:40.850Z,10.43
2022-09-22T05:24:08.865Z,10.48
2022-09-22T05:26:37.030Z,10.51
2022-09-22T05:29:06.531Z,10.47
2022-09-22T05:31:34.628Z,10.51
2022-09-22T05:34:02.871Z,10.51
2022-09-22T05:36:31.188Z,10.47
2022-09-22T05:39:00.879Z,10.51
2022-09-22T05:41:31.487Z,10.55
2022-09-22T05:43:59.749Z,10.58
2022-09-22T05:46:27.861Z,10.65
2022-09-22T05:48:56.106Z,10.60
2022-09-22T05:51:24.498Z,10.57
2022-09-22T05:53:53.933Z,10.62
2022-09-22T05:56:23.755Z,10.69
2022-09-22T05:58:52.216Z,10.64
2022-09-22T06:01:20.593Z,10.61
2022-09-22T06:03:49.010Z,10.66
2022-09-22T06:06:17.085Z,10.73
2022-09-22T06:08:48.925Z,10.81
2022-09-22T06:11:17.457Z,10.86
2022-09-22T06:13:50.581Z,11.00
2022-09-22T06:16:19.020Z,11.10
2022-09-22T06:18:47.794Z,11.22
2022-09-22T06:21:16.601Z,11.29
2022-09-22T06:23:45.122Z,11.43
2022-09-22T06:26:13.535Z,11.54
2022-09-22T06:28:42.824Z,11.64
2022-09-22T06:31:12.764Z,11.68
2022-09-22T06:33:44.569Z,11.77
2022-09-22T06:36:12.753Z,11.77
2022-09-22T06:38:41.622Z,11.85
2022-09-22T06:41:10.155Z,11.95
2022-09-22T06:43:38.714Z,12.00
2022-09-22T06:46:07.593Z,11.99
2022-09-22T06:48:37.774Z,12.05
2022-09-22T06:51:06.119Z,12.09
2022-09-22T06:53:41.957Z,12.10
2022-09-22T06:56:10.076Z,12.15
2022-09-22T06:59:05.537Z,12.16
2022-09-22T07:01:31.653Z,12.22
2022-09-22T07:04:01.345Z,12.15
2022-09-22T07:06:30.069Z,12.20
2022-09-22T07:08:58.577Z,12.12
2022-09-22T07:11:26.976Z,12.29
2022-09-22T07:13:56.527Z,12.34
2022-09-22T07:16:26.602Z,12.46
2022-09-22T07:18:56.143Z,12.63
2022-09-22T07:21:27.991Z,12.74
2022-09-22T07:23:57.414Z,12.93
2022-09-22T07:26:29.227Z,13.08
2022-09-22T07:28:59.459Z,13.20
2022-09-22T07:31:30.029Z,13.27
2022-09-22T07:34:00.548Z,13.46
2022-09-22T07:36:40.450Z,13.46
2022-09-22T07:39:11.555Z,13.58
2022-09-22T07:41:43.757Z,13.65
2022-09-22T07:44:30.823Z,13.77
2022-09-22T07:46:59.846Z,13.78
2022-09-22T07:49:28.883Z,13.82
2022-09-22T07:51:59.069Z,13.87
2022-09-22T07:54:29.601Z,13.86
2022-09-22T07:56:59.816Z,13.98
2022-09-22T07:59:28.685Z,13.94
2022-09-22T08:01:57.504Z,14.01
2022-09-22T08:04:27.154Z,14.00
2022-09-22T08:06:56.906Z,14.16
2022-09-22T08:09:29.872Z,14.27
2022-09-22T08:11:58.613Z,14.38
2022-09-22T08:14:26.744Z,14.43
2022-09-22T08:16:55.552Z,14.51
2022-09-22T08:19:24.802Z,14.57
2022-09-22T08:21:54.646Z,14.69
2022-09-22T08:24:24.203Z,14.76
2022-09-22T08:26:56.417Z,14.84
2022-09-22T08:29:25.041Z,14.86
2022-09-22T08:31:54.479Z,14.91
2022-09-22T08:34:23.372Z,14.91
2022-09-22T08:36:51.682Z,14.79
2022-09-22T08:39:21.194Z,14.99
2022-09-22T08:42:14.821Z,14.92
2022-09-22T08:44:52.338Z,15.03
2022-09-22T08:47:40.443Z,14.98
2022-09-22T08:50:37.846Z,15.01
2022-09-22T08:53:10.410Z,15.02
2022-09-22T08:55:43.747Z,15.08
2022-09-22T08:58:27.733Z,15.15
2022-09-22T09:01:05.607Z,15.14
2022-09-22T09:03:47.765Z,15.22
2022-09-22T09:06:22.837Z,15.27
2022-09-22T09:09:19.168Z,15.30
2022-09-22T09:12:07.263Z,15.38
2022-09-22T09:14:51.109Z,15.40
2022-09-22T09:17:24.582Z,15.46
2022-09-22T09:19:57.079Z,15.53
2022-09-22T09:22:32.250Z,15.61
2022-09-22T09:25:23.935Z,15.72
2022-09-22T09:27:57.811Z,15.78
2022-09-22T09:30:28.515Z,15.76
2022-09-22T09:33:00.974Z,15.67
2022-09-22T09:35:42.135Z,15.66
2022-09-22T09:38:14.157Z,15.64
2022-09-22T09:40:42.862Z,15.65
2022-09-22T09:43:12.279Z,15.66
2022-09-22T09:45:54.188Z,15.65
2022-09-22T09:48:30.278Z,15.70
2022-09-22T09:51:04.297Z,15.74
2022-09-22T09:53:40.913Z,15.93
2022-09-22T09:56:24.522Z,16.23
2022-09-22T09:59:18.235Z,16.22
2022-09-22T10:01:51.110Z,16.38
2022-09-22T10:04:23.526Z,16.62
2022-09-22T10:06:52.130Z,16.82
2022-09-22T10:09:29.510Z,16.83
2022-09-22T10:12:02.173Z,16.90
2022-09-22T10:14:33.565Z,17.06
2022-09-22T10:17:05.115Z,16.94
2022-09-22T10:19:35.042Z,16.91
2022-09-22T10:22:26.042Z,16.79
2022-09-22T10:24:59.525Z,16.72
2022-09-22T10:27:30.147Z,16.93
2022-09-22T10:30:23.776Z,16.89
2022-09-22T10:33:17.609Z,16.81
2022-09-22T10:35:48.444Z,16.96
2022-09-22T10:38:20.507Z,16.90
2022-09-22T10:40:55.228Z,16.71
2022-09-22T10:43:39.831Z,16.64
2022-09-22T10:46:33.014Z,16.81
2022-09-22T10:49:07.860Z,16.69
2022-09-22T10:51:55.040Z,16.69
2022-09-22T10:54:43.546Z,16.79
2022-09-22T10:57:24.946Z,16.73
2022-09-22T11:00:06.284Z,16.77
2022-09-22T11:02:55.895Z,16.76
2022-09-22T11:05:56.306Z,16.87
2022-09-22T11:08:42.696Z,16.94
2022-09-22T11:11:37.364Z,16.73
2022-09-22T11:14:22.575Z,16.87
2022-09-22T11:17:09.886Z,16.91
2022-09-22T11:19:58.868Z,17.02
2022-09-22T11:22:51.594Z,16.94
2022-09-22T11:25:33.501Z,17.04
2022-09-22T11:28:18.885Z,17.07
2022-09-22T11:30:51.317Z,17.10
2022-09-22T11:33:45.196Z,17.06
2022-09-22T11:36:24.763Z,17.12
2022-09-22T11:39:09.882Z,17.06
2022-09-22T11:41:42.616Z,17.14
2022-09-22T11:44:29.726Z,17.08
2022-09-22T11:47:37.484Z,17.09
2022-09-22T11:50:32.035Z,17.11
2022-09-22T11:53:24.654Z,17.19
2022-09-22T11:56:08.826Z,17.18
2022-09-22T11:58:41.054Z,17.16
2022-09-22T12:01:15.674Z,16.99
2022-09-22T12:03:48.749Z,17.01
2022-09-22T12:06:22.065Z,16.98
2022-09-22T12:11:35.412Z,16.82
2022-09-22T12:14:05.774Z,16.89
2022-09-22T12:16:42.276Z,16.82
2022-09-22T12:19:23.029Z,16.83
2022-09-22T12:21:59.943Z,16.87
2022-09-22T12:24:28.355Z,16.81
2022-09-22T12:26:57.942Z,16.98
2022-09-22T12:29:29.540Z,17.09
2022-09-22T12:32:00.637Z,17.09
2022-09-22T12:34:33.863Z,16.80
2022-09-22T12:37:11.846Z,16.73
2022-09-22T12:39:43.362Z,16.76
2022-09-22T12:42:21.521Z,16.75
2022-09-22T12:44:55.798Z,16.67
2022-09-22T12:47:32.257Z,16.74
2022-09-22T12:50:03.117Z,16.73
2022-09-22T12:53:03.672Z,16.58
2022-09-22T12:55:47.362Z,16.61
2022-09-22T12:58:46.870Z,16.61
2022-09-22T13:01:40.217Z,16.73
2022-09-22T13:04:22.750Z,16.64
2022-09-22T13:06:57.244Z,16.71
2022-09-22T13:09:30.216Z,16.67
2022-09-22T13:12:23.456Z,16.82
2022-09-22T13:15:21.304Z,16.82
2022-09-22T13:17:50.762Z,16.76
2022-09-22T13:20:25.765Z,16.72
2022-09-22T13:22:56.767Z,16.74
2022-09-22T13:25:27.441Z,16.72
2022-09-22T13:28:15.226Z,16.71
2022-09-22T13:30:47.303Z,16.65
2022-09-22T13:33:23.461Z,16.63
2022-09-22T13:36:00.141Z,16.57
2022-09-22T13:38:29.620Z,16.46
2022-09-22T13:40:58.225Z,16.43
2022-09-22T13:43:32.303Z,16.33
2022-09-22T13:46:03.706Z,16.20
2022-09-22T13:48:37.137Z,16.10
2022-09-22T13:51:09.824Z,16.10
2022-09-22T13:53:40.359Z,16.26
2022-09-22T13:56:21.373Z,16.10
2022-09-22T13:58:52.394Z,16.10
2022-09-22T14:01:24.462Z,16.09
2022-09-22T14:03:54.824Z,16.05
2022-09-22T14:06:27.419Z,15.98
2022-09-22T14:08:57.358Z,15.96
2022-09-22T14:11:29.799Z,16.00
2022-09-22T14:14:00.160Z,15.92
2022-09-22T14:16:37.291Z,16.06
2022-09-22T14:19:09.907Z,16.02
2022-09-22T14:21:46.223Z,16.01
2022-09-22T14:24:15.820Z,16.02
2022-09-22T14:26:49.324Z,15.96
2022-09-22T14:29:23.046Z,15.84
2022-09-22T14:31:57.812Z,15.93
2022-09-22T14:34:31.574Z,15.91
2022-09-22T14:37:02.404Z,15.86
2022-09-22T14:39:34.588Z,15.88
2022-09-22T14:42:12.047Z,15.94
2022-09-22T14:44:46.592Z,15.92
2022-09-22T14:47:24.523Z,15.84
2022-09-22T14:50:08.981Z,15.92
2022-09-22T14:52:41.308Z,15.96
2022-09-22T14:55:17.382Z,15.98
2022-09-22T14:57:49.070Z,15.99
2022-09-22T15:00:36.883Z,15.98
2022-09-22T15:03:17.032Z,15.86
2022-09-22T15:05:46.290Z,15.86
2022-09-22T15:08:19.140Z,15.86
2022-09-22T15:10:55.528Z,15.74
2022-09-22T15:13:37.925Z,15.68
2022-09-22T15:16:07.812Z,15.74
2022-09-22T15:18:40.322Z,15.66
2022-09-22T15:21:13.237Z,15.68
2022-09-22T15:23:45.354Z,15.63
2022-09-22T15:26:19.786Z,15.53
2022-09-22T15:28:51.753Z,15.55
2022-09-22T15:31:27.151Z,15.65
2022-09-22T15:34:01.452Z,15.60
2022-09-22T15:36:32.182Z,15.58
2022-09-22T15:39:02.430Z,15.62
2022-09-22T15:41:31.020Z,15.58
2022-09-22T15:43:59.864Z,15.57
2022-09-22T15:46:34.041Z,15.50
2022-09-22T15:49:10.368Z,15.48
2022-09-22T15:51:38.874Z,15.48
2022-09-22T15:54:14.440Z,15.41
2022-09-22T15:56:43.050Z,15.45
2022-09-22T15:59:18.641Z,15.46
2022-09-22T16:01:47.165Z,15.55
2022-09-22T16:04:17.349Z,15.61
2022-09-22T16:06:51.482Z,15.54
2022-09-22T16:09:19.907Z,15.51
2022-09-22T16:11:54.796Z,15.40
2022-09-22T16:14:23.330Z,15.30
2022-09-22T16:16:52.572Z,15.31
2022-09-22T16:19:22.111Z,15.32
2022-09-22T16:21:51.786Z,15.29
2022-09-22T16:24:22.721Z,15.28
2022-09-22T16:26:51.933Z,15.30
2022-09-22T16:29:20.803Z,15.28
2022-09-22T16:31:49.091Z,15.30
2022-09-22T16:34:19.549Z,15.28
2022-09-22T16:36:49.360Z,15.17
2022-09-22T16:39:18.710Z,15.16
2022-09-22T16:41:47.804Z,15.20
2022-09-22T16:44:16.474Z,15.12
2022-09-22T16:46:44.884Z,15.15
2022-09-22T16:49:16.347Z,15.10
2022-09-22T16:51:49.042Z,15.08
2022-09-22T16:54:19.924Z,15.01
2022-09-22T16:56:50.987Z,15.00
2022-09-22T16:59:20.773Z,14.92
2022-09-22T17:01:49.635Z,14.82
2022-09-22T17:04:19.515Z,14.78
2022-09-22T17:06:48.268Z,14.74
2022-09-22T17:09:19.139Z,14.70
2022-09-22T17:11:49.410Z,14.66
2022-09-22T17:14:21.852Z,14.64
2022-09-22T17:16:52.531Z,14.62
2022-09-22T17:19:22.614Z,14.59
2022-09-22T17:21:55.692Z,14.52
2022-09-22T17:24:27.050Z,14.43
2022-09-22T17:26:57.135Z,14.38
2022-09-22T17:29:26.839Z,14.37
2022-09-22T17:31:57.509Z,14.40
2022-09-22T17:34:26.911Z,14.39
2022-09-22T17:36:55.633Z,14.37
2022-09-22T17:39:25.926Z,14.32
2022-09-22T17:41:55.239Z,14.26
2022-09-22T17:44:24.221Z,14.20
2022-09-22T17:47:11.493Z,14.20
2022-09-22T17:49:57.628Z,14.08
2022-09-22T17:52:44.008Z,14.08
2022-09-22T17:55:20.642Z,14.03
2022-09-22T17:57:50.561Z,13.99
2022-09-22T18:00:21.442Z,13.95
2022-09-22T18:02:50.749Z,13.97
2022-09-22T18:05:22.057Z,13.92
2022-09-22T18:07:53.704Z,13.90
2022-09-22T18:10:23.697Z,13.87
2022-09-22T18:12:52.184Z,13.81
2022-09-22T18:15:20.639Z,13.86
2022-09-22T18:17:49.437Z,13.73
2022-09-22T18:20:20.888Z,13.65
2022-09-22T18:22:50.194Z,13.66
2022-09-22T18:25:23.291Z,13.63
2022-09-22T18:27:53.726Z,13.59
2022-09-22T18:30:22.265Z,13.54
2022-09-22T18:32:50.725Z,13.51
2022-09-22T18:35:29.694Z,13.44
2022-09-22T18:37:58.046Z,13.49
2022-09-22T18:40:28.047Z,13.46
2022-09-22T18:42:57.840Z,13.43
2022-09-22T18:45:26.129Z,13.40
2022-09-22T18:47:59.527Z,13.40
2022-09-22T18:50:30.825Z,13.39
2022-09-22T18:52:58.975Z,13.41
2022-09-22T18:55:27.249Z,13.41
2022-09-22T18:57:56.050Z,13.35
2022-09-22T19:00:25.787Z,13.34
2022-09-22T19:02:54.000Z,13.32
2022-09-22T19:05:22.473Z,13.28
2022-09-22T19:07:53.904Z,13.26
2022-09-22T19:10:23.704Z,13.25
2022-09-22T19:12:52.106Z,13.24
2022-09-22T19:15:20.922Z,13.20
2022-09-22T19:17:51.175Z,13.25
2022-09-22T19:20:24.160Z,13.19
2022-09-22T19:22:54.097Z,13.22
2022-09-22T19:25:23.322Z,13.17
2022-09-22T19:27:52.452Z,13.12
2022-09-22T19:30:24.083Z,13.12
2022-09-22T19:32:56.463Z,13.07
2022-09-22T19:35:27.058Z,13.04
2022-09-22T19:37:56.743Z,12.97
2022-09-22T19:40:25.634Z,12.98
2022-09-22T19:42:54.595Z,13.00
2022-09-22T19:45:27.477Z,12.95
2022-09-22T19:47:58.663Z,12.91
2022-09-22T19:50:27.167Z,12.89
2022-09-22T19:52:55.421Z,12.98
2022-09-22T19:55:23.665Z,12.90
2022-09-22T19:57:53.144Z,12.87
2022-09-22T20:00:26.506Z,12.95
2022-09-22T20:02:59.362Z,12.96
2022-09-22T20:05:29.925Z,12.91
2022-09-22T20:07:58.259Z,12.89
2022-09-22T20:10:26.745Z,12.89
2022-09-22T20:12:55.307Z,12.90
2022-09-22T20:15:23.648Z,12.84
2022-09-22T20:17:51.889Z,12.81
2022-09-22T20:20:24.449Z,12.83
2022-09-22T20:22:59.452Z,12.80
2022-09-22T20:25:30.520Z,12.80
2022-09-22T20:27:59.048Z,12.84
2022-09-22T20:30:27.513Z,12.84
2022-09-22T20:32:55.835Z,12.83
2022-09-22T20:35:25.489Z,12.81
2022-09-22T20:37:59.477Z,12.82
2022-09-22T20:40:28.624Z,12.77
2022-09-22T20:42:56.696Z,12.81
2022-09-22T20:45:25.445Z,12.82
2022-09-22T20:47:55.103Z,12.83
2022-09-22T20:50:25.320Z,12.79
2022-09-22T20:52:53.909Z,12.80
2022-09-22T20:55:22.774Z,12.78
2022-09-22T20:57:50.876Z,12.78
2022-09-22T21:00:19.275Z,12.77
2022-09-22T21:02:47.763Z,12.75
2022-09-22T21:05:16.160Z,12.76
2022-09-22T21:07:45.825Z,12.78
2022-09-22T21:10:36.765Z,12.77
2022-09-22T21:13:05.547Z,12.71
2022-09-22T21:15:33.908Z,12.71
2022-09-22T21:18:02.123Z,12.71
2022-09-22T21:20:31.347Z,12.69
2022-09-22T21:23:01.331Z,12.69
2022-09-22T21:25:29.485Z,12.67
2022-09-22T21:27:57.675Z,12.69
2022-09-22T21:30:26.023Z,12.69
2022-09-22T21:32:54.184Z,12.71
2022-09-22T21:35:22.293Z,12.68
2022-09-22T21:37:52.091Z,12.67
2022-09-22T21:40:23.393Z,12.63
2022-09-22T21:42:52.343Z,12.63
2022-09-22T21:45:20.526Z,12.62
2022-09-22T21:47:51.647Z,12.57
2022-09-22T21:50:19.959Z,12.56
2022-09-22T21:52:48.135Z,12.53
2022-09-22T21:55:16.533Z,12.52
2022-09-22T21:57:46.326Z,12.46
2022-09-22T22:00:15.867Z,12.48
2022-09-22T22:03:01.658Z,12.43
2022-09-22T22:05:31.219Z,12.43
2022-09-22T22:07:59.662Z,12.40
2022-09-22T22:10:28.085Z,12.39
2022-09-22T22:12:57.693Z,12.38
2022-09-22T22:15:26.147Z,12.38
2022-09-22T22:17:54.547Z,12.33
2022-09-22T22:20:23.387Z,12.31
2022-09-22T22:22:51.450Z,12.29
2022-09-22T22:25:20.319Z,12.23
2022-09-22T22:27:48.545Z,12.24
2022-09-22T22:30:18.199Z,12.23
2022-09-22T22:32:46.785Z,12.20
2022-09-22T22:35:15.256Z,12.22
2022-09-22T22:37:45.821Z,12.20
2022-09-22T22:40:14.242Z,12.19
2022-09-22T22:42:42.438Z,12.22
2022-09-22T22:45:12.012Z,12.13
2022-09-22T22:47:42.101Z,12.15
2022-09-22T22:50:11.544Z,12.15
2022-09-22T22:52:43.314Z,12.14
2022-09-22T22:55:11.667Z,12.22
2022-09-22T22:57:39.897Z,12.10
2022-09-22T23:00:09.728Z,12.08
2022-09-22T23:02:38.757Z,12.10
2022-09-22T23:05:09.562Z,12.17
2022-09-22T23:07:38.740Z,12.17
2022-09-22T23:10:07.936Z,12.15
2022-09-22T23:12:40.427Z,12.17
2022-09-22T23:15:10.767Z,12.07
2022-09-22T23:17:39.478Z,12.13
2022-09-22T23:20:10.244Z,11.99
2022-09-22T23:22:38.480Z,12.00
2022-09-22T23:25:07.293Z,12.00
2022-09-22T23:27:35.686Z,11.99
2022-09-22T23:30:03.896Z,12.00
2022-09-22T23:32:31.953Z,11.96
2022-09-22T23:35:00.323Z,11.97
2022-09-22T23:37:29.794Z,11.94
2022-09-22T23:39:57.880Z,11.92
2022-09-22T23:42:26.465Z,11.91
2022-09-22T23:44:54.683Z,11.89
2022-09-22T23:47:23.013Z,11.85
2022-09-22T23:49:51.302Z,11.91
2022-09-22T23:52:19.333Z,11.85
2022-09-22T23:54:48.941Z,11.83
2022-09-22T23:57:17.467Z,11.81
2022-09-22T23:59:45.702Z,11.78
